Time;durP1;ratioP1;P1;durP2;ratioP2;P2;SDS_P1;SDS_P2;PMS_P1;PMS_P2;Temp;Humidity;BMP_temperature;BMP_pressure;BME280_temperature;BME280_humidity;BME280_pressure;Samples;Min_cycle;Max_cycle;Signal;HPM_P1;HPM_P2
2022/03/15 00:00:56;;;;;;;30.23;17.33;;;7.70;99.90;;;;;;5037792;28;20221;-63
2022/03/15 00:03:24;;;;;;;35.20;19.33;;;7.60;99.90;;;;;;5040123;28;20212;-65
2022/03/15 00:05:53;;;;;;;34.50;18.95;;;7.40;99.90;;;;;;5039704;28;20232;-64
2022/03/15 00:08:21;;;;;;;29.60;18.98;;;7.40;99.90;;;;;;5038862;28;20208;-64
2022/03/15 00:10:50;;;;;;;37.95;19.30;;;7.30;99.90;;;;;;5039598;28;20478;-63
2022/03/15 00:13:20;;;;;;;34.75;18.80;;;7.30;99.90;;;;;;5037887;28;20213;-64
2022/03/15 00:15:48;;;;;;;30.33;18.05;;;7.20;99.90;;;;;;5037786;28;20598;-66
2022/03/15 00:18:16;;;;;;;31.95;18.80;;;7.20;99.90;;;;;;5037006;28;20212;-65
2022/03/15 00:20:43;;;;;;;37.80;18.50;;;7.10;99.90;;;;;;5037414;28;20218;-64
2022/03/15 00:23:13;;;;;;;36.00;19.00;;;7.00;99.90;;;;;;5036946;28;20297;-65
2022/03/15 00:25:40;;;;;;;38.15;19.75;;;7.00;99.90;;;;;;5037154;28;20212;-65
2022/03/15 00:28:09;;;;;;;36.60;20.17;;;6.90;99.90;;;;;;5036322;28;20296;-64
2022/03/15 00:30:37;;;;;;;29.63;17.75;;;6.90;99.90;;;;;;5036922;28;20788;-65
2022/03/15 00:33:05;;;;;;;38.45;20.00;;;6.80;99.90;;;;;;5036331;28;20202;-66
2022/03/15 00:35:33;;;;;;;43.40;20.73;;;6.70;99.90;;;;;;5037280;28;20216;-65
2022/03/15 00:38:00;;;;;;;32.58;19.73;;;6.70;99.90;;;;;;5037105;28;20224;-65
2022/03/15 00:40:30;;;;;;;40.42;21.05;;;6.80;99.90;;;;;;5037204;28;20755;-65
2022/03/15 00:42:58;;;;;;;38.63;20.45;;;6.80;99.90;;;;;;5036266;28;20206;-65
2022/03/15 00:45:28;;;;;;;40.17;22.38;;;6.80;99.90;;;;;;5036983;28;20197;-64
2022/03/15 00:47:57;;;;;;;37.75;22.45;;;6.70;99.90;;;;;;5036619;28;20201;-65
2022/03/15 00:50:28;;;;;;;45.53;23.80;;;6.70;99.90;;;;;;5037056;28;20601;-64
2022/03/15 00:52:56;;;;;;;35.72;20.95;;;6.80;99.90;;;;;;5036907;28;20595;-65
2022/03/15 00:55:24;;;;;;;43.25;23.35;;;6.90;99.90;;;;;;5036713;28;20216;-66
2022/03/15 00:57:53;;;;;;;43.97;22.75;;;6.90;99.90;;;;;;5040348;28;20202;-66
2022/03/15 01:00:21;;;;;;;49.40;23.95;;;6.90;99.90;;;;;;5041235;28;20228;-63
2022/03/15 01:02:49;;;;;;;44.80;23.88;;;7.00;99.90;;;;;;5041178;28;20260;-65
2022/03/15 01:05:17;;;;;;;44.53;22.90;;;7.00;99.90;;;;;;5040689;28;20213;-66
2022/03/15 01:07:45;;;;;;;51.83;23.67;;;7.10;99.90;;;;;;5040956;28;20212;-66
2022/03/15 01:10:13;;;;;;;50.00;23.85;;;7.10;99.90;;;;;;5040588;28;20229;-64
2022/03/15 01:12:41;;;;;;;43.45;22.08;;;7.00;99.90;;;;;;5040280;28;20212;-66
2022/03/15 01:15:11;;;;;;;43.30;22.65;;;7.00;99.90;;;;;;5040462;28;20204;-64
2022/03/15 01:17:38;;;;;;;45.92;22.15;;;7.10;99.90;;;;;;5040272;28;20209;-66
2022/03/15 01:20:08;;;;;;;39.55;22.73;;;7.10;99.90;;;;;;5040593;28;20228;-65
2022/03/15 01:22:36;;;;;;;43.22;22.00;;;7.20;99.90;;;;;;5040653;28;20202;-66
2022/03/15 01:25:05;;;;;;;46.25;23.98;;;7.10;99.90;;;;;;5040132;28;20735;-64
2022/03/15 01:27:34;;;;;;;42.35;23.02;;;7.10;99.90;;;;;;5040879;28;20289;-64
2022/03/15 01:30:02;;;;;;;47.55;24.42;;;7.10;99.90;;;;;;5040325;28;20229;-65
2022/03/15 01:32:31;;;;;;;52.22;23.40;;;7.20;99.90;;;;;;5040498;28;20209;-64
2022/03/15 01:34:59;;;;;;;48.45;23.38;;;7.20;99.90;;;;;;5041021;28;20232;-64
2022/03/15 01:37:27;;;;;;;45.33;24.67;;;7.10;99.90;;;;;;5041162;28;20198;-65
2022/03/15 01:39:54;;;;;;;44.92;23.55;;;7.20;99.90;;;;;;5041731;28;20226;-64
2022/03/15 01:42:22;;;;;;;42.30;23.95;;;7.20;99.90;;;;;;5041783;28;20206;-64
2022/03/15 01:44:51;;;;;;;57.80;25.13;;;7.20;99.90;;;;;;5042208;28;20197;-63
2022/03/15 01:47:19;;;;;;;46.70;24.20;;;7.30;99.90;;;;;;5041471;28;20206;-64
2022/03/15 01:49:48;;;;;;;52.25;25.27;;;7.20;99.90;;;;;;5040871;28;20232;-63
2022/03/15 01:52:16;;;;;;;49.97;25.17;;;7.30;99.90;;;;;;5041681;28;20218;-65
2022/03/15 01:54:44;;;;;;;50.40;26.63;;;7.30;99.90;;;;;;5040358;28;20216;-66
2022/03/15 01:57:12;;;;;;;54.30;24.95;;;7.30;99.90;;;;;;5040360;28;20202;-67
2022/03/15 01:59:41;;;;;;;49.90;25.25;;;7.20;99.90;;;;;;5040058;28;20257;-68
2022/03/15 02:02:09;;;;;;;50.45;24.90;;;7.20;99.90;;;;;;5040317;28;20244;-67
2022/03/15 02:05:01;;;;;;;59.22;25.35;;;7.30;99.90;;;;;;5047703;28;20292;-68
2022/03/15 02:07:28;;;;;;;60.15;25.55;;;7.20;99.90;;;;;;5042892;28;20205;-68
2022/03/15 02:09:56;;;;;;;50.28;22.92;;;7.20;99.90;;;;;;5039156;28;20226;-67
2022/03/15 02:12:24;;;;;;;52.13;24.15;;;7.20;99.90;;;;;;5042507;28;20300;-66
2022/03/15 02:14:52;;;;;;;56.70;23.55;;;7.20;99.90;;;;;;5040149;28;20292;-67
2022/03/15 02:17:20;;;;;;;61.22;25.30;;;7.20;99.90;;;;;;5039087;28;20217;-64
2022/03/15 02:19:48;;;;;;;53.97;24.75;;;7.30;99.90;;;;;;5039502;28;20323;-66
2022/03/15 02:22:17;;;;;;;49.30;23.02;;;7.20;99.90;;;;;;5039232;28;20379;-66
2022/03/15 02:24:44;;;;;;;64.18;25.00;;;7.20;99.90;;;;;;5039347;28;20223;-64
2022/03/15 02:27:12;;;;;;;49.63;22.88;;;7.20;99.90;;;;;;5039332;28;20285;-65
2022/03/15 02:29:40;;;;;;;52.92;22.23;;;7.20;99.90;;;;;;5039435;28;20275;-64
2022/03/15 02:32:09;;;;;;;49.22;23.48;;;7.30;99.90;;;;;;5039122;28;20217;-65
2022/03/15 02:34:37;;;;;;;58.40;26.05;;;7.30;99.90;;;;;;5038987;28;20618;-65
2022/03/15 02:37:05;;;;;;;49.58;26.70;;;7.30;99.90;;;;;;5039064;28;20309;-64
2022/03/15 02:39:34;;;;;;;56.17;25.70;;;7.30;99.90;;;;;;5038283;28;20225;-65
2022/03/15 02:42:02;;;;;;;53.75;25.92;;;7.30;99.90;;;;;;5038660;28;20271;-64
2022/03/15 02:44:30;;;;;;;62.90;29.10;;;7.40;99.90;;;;;;5038759;28;20202;-65
2022/03/15 02:46:58;;;;;;;72.35;30.02;;;7.40;99.90;;;;;;5038640;28;20338;-64
2022/03/15 02:49:26;;;;;;;62.20;28.35;;;7.40;99.90;;;;;;5038455;28;20321;-64
2022/03/15 02:51:54;;;;;;;72.72;29.13;;;7.50;99.90;;;;;;5038184;28;20287;-66
2022/03/15 02:54:22;;;;;;;64.43;29.75;;;7.40;99.90;;;;;;5017108;28;20601;-65
2022/03/15 02:56:52;;;;;;;53.63;27.20;;;7.40;99.90;;;;;;5038701;28;20210;-64
2022/03/15 02:59:20;;;;;;;60.03;27.00;;;7.40;99.90;;;;;;5038429;28;20312;-65
2022/03/15 03:01:50;;;;;;;56.10;25.52;;;7.40;99.90;;;;;;5038585;28;20194;-66
2022/03/15 03:04:21;;;;;;;54.83;24.15;;;7.40;99.90;;;;;;5038558;28;20206;-66
2022/03/15 03:06:49;;;;;;;45.80;23.40;;;7.30;99.90;;;;;;5038009;28;20284;-65
2022/03/15 03:09:17;;;;;;;53.25;24.83;;;7.30;99.90;;;;;;5038228;28;20214;-66
2022/03/15 03:11:45;;;;;;;50.53;25.13;;;7.20;99.90;;;;;;5038099;28;20331;-64
2022/03/15 03:14:16;;;;;;;62.00;23.95;;;7.10;99.90;;;;;;5037805;28;20216;-66
2022/03/15 03:16:43;;;;;;;47.90;25.75;;;7.10;99.90;;;;;;5040104;28;20701;-66
2022/03/15 03:19:11;;;;;;;50.95;26.08;;;7.10;99.90;;;;;;5042841;28;20213;-67
2022/03/15 03:21:40;;;;;;;58.67;27.40;;;7.00;99.90;;;;;;5042367;28;20224;-66
2022/03/15 03:24:10;;;;;;;53.85;26.60;;;6.90;99.90;;;;;;5041693;28;20241;-66
2022/03/15 03:26:40;;;;;;;51.47;26.83;;;6.90;99.90;;;;;;5042361;28;20193;-67
2022/03/15 03:29:09;;;;;;;51.03;25.48;;;7.00;99.90;;;;;;5042559;28;20216;-66
2022/03/15 03:31:38;;;;;;;50.38;24.73;;;7.00;99.90;;;;;;5042044;28;20256;-65
2022/03/15 03:34:08;;;;;;;45.55;22.60;;;7.10;99.90;;;;;;5038539;28;20473;-67
2022/03/15 03:36:36;;;;;;;48.08;26.13;;;7.10;99.90;;;;;;5038709;28;20212;-68
2022/03/15 03:39:24;;;;;;;50.60;24.95;;;7.20;99.90;;;;;;5037808;28;20226;-69
2022/03/15 03:41:53;;;;;;;44.88;24.70;;;7.20;99.90;;;;;;5037276;28;20194;-70
2022/03/15 03:44:21;;;;;;;46.85;24.05;;;7.20;99.90;;;;;;5038623;28;20685;-70
2022/03/15 03:46:50;;;;;;;42.10;21.92;;;7.10;99.90;;;;;;5038008;28;20229;-69
2022/03/15 03:49:18;;;;;;;49.80;22.30;;;7.10;99.90;;;;;;5037315;28;20245;-69
2022/03/15 03:51:46;;;;;;;51.58;24.58;;;7.10;99.90;;;;;;5037943;28;20320;-69
2022/03/15 03:54:14;;;;;;;42.85;22.85;;;7.10;99.90;;;;;;5037894;28;20202;-70
2022/03/15 03:56:42;;;;;;;41.60;23.25;;;7.00;99.90;;;;;;5038170;28;20237;-70
2022/03/15 03:59:11;;;;;;;47.95;25.60;;;7.00;99.90;;;;;;5037660;28;20205;-69
2022/03/15 04:01:40;;;;;;;49.35;26.13;;;6.90;99.90;;;;;;5038014;28;20194;-69
2022/03/15 04:04:10;;;;;;;52.00;26.45;;;6.80;99.90;;;;;;5037998;28;20212;-69
2022/03/15 04:06:38;;;;;;;47.53;24.70;;;6.70;99.90;;;;;;5038745;28;20209;-69
2022/03/15 04:09:09;;;;;;;50.25;26.02;;;6.70;99.90;;;;;;5038334;28;20373;-68
2022/03/15 04:11:39;;;;;;;46.75;25.20;;;6.70;99.90;;;;;;5038714;28;20304;-69
2022/03/15 04:14:08;;;;;;;46.22;27.02;;;6.70;99.90;;;;;;5038580;28;20212;-68
2022/03/15 04:16:37;;;;;;;51.22;28.17;;;6.70;99.90;;;;;;5038468;28;20224;-69
2022/03/15 04:19:05;;;;;;;50.67;25.70;;;6.70;99.90;;;;;;5038730;28;20206;-68
2022/03/15 04:21:35;;;;;;;41.80;24.55;;;6.70;99.90;;;;;;5038877;28;20193;-68
2022/03/15 04:24:03;;;;;;;45.63;24.67;;;6.70;99.90;;;;;;5038933;28;20198;-68
2022/03/15 04:26:31;;;;;;;45.08;24.60;;;6.70;99.90;;;;;;5038799;28;20212;-68
2022/03/15 04:28:58;;;;;;;37.13;22.33;;;6.70;99.90;;;;;;5038379;28;20233;-69
2022/03/15 04:31:26;;;;;;;48.28;23.95;;;6.70;99.90;;;;;;5039685;28;20225;-68
2022/03/15 04:33:54;;;;;;;37.17;22.10;;;6.70;99.90;;;;;;5042139;28;20198;-68
2022/03/15 04:36:22;;;;;;;34.63;23.33;;;6.70;99.90;;;;;;5042005;28;20224;-68
2022/03/15 04:38:51;;;;;;;43.85;24.77;;;6.70;99.90;;;;;;5042177;28;20557;-68
2022/03/15 04:41:19;;;;;;;35.00;22.38;;;6.70;99.90;;;;;;5041902;28;20217;-68
2022/03/15 04:43:47;;;;;;;47.88;25.05;;;6.80;99.90;;;;;;5041574;28;20202;-68
2022/03/15 04:46:14;;;;;;;43.63;23.48;;;6.80;99.90;;;;;;5041750;28;20208;-70
2022/03/15 04:48:42;;;;;;;49.22;24.80;;;6.80;99.90;;;;;;5040898;28;20296;-69
2022/03/15 04:51:10;;;;;;;44.72;23.70;;;6.70;99.90;;;;;;5041175;28;20225;-69
2022/03/15 04:53:38;;;;;;;46.13;25.92;;;6.80;99.90;;;;;;5040944;28;20214;-68
2022/03/15 04:56:08;;;;;;;45.97;24.63;;;6.70;99.90;;;;;;5041238;28;20240;-68
2022/03/15 04:58:36;;;;;;;49.05;26.42;;;6.80;99.90;;;;;;5041274;28;20548;-68
2022/03/15 05:01:03;;;;;;;55.53;24.75;;;6.80;99.90;;;;;;5040717;28;20228;-69
2022/03/15 05:03:33;;;;;;;56.78;27.95;;;6.90;99.90;;;;;;5040647;28;20629;-70
2022/03/15 05:06:01;;;;;;;62.50;29.95;;;6.90;99.90;;;;;;5040829;28;20241;-70
2022/03/15 05:08:29;;;;;;;58.30;29.02;;;6.90;99.90;;;;;;5039690;28;20552;-66
2022/03/15 05:11:07;;;;;;;73.88;32.67;;;6.90;99.90;;;;;;5045417;28;20213;-67
2022/03/15 05:13:39;;;;;;;77.07;33.05;;;6.80;99.90;;;;;;5045507;28;20210;-67
2022/03/15 05:16:09;;;;;;;68.72;29.80;;;6.80;99.90;;;;;;5039866;28;20236;-68
2022/03/15 05:18:40;;;;;;;69.80;32.65;;;6.80;99.90;;;;;;5040302;28;20693;-67
2022/03/15 05:21:09;;;;;;;70.10;33.60;;;6.90;99.90;;;;;;5039617;28;20252;-67
2022/03/15 05:23:37;;;;;;;72.65;31.48;;;6.90;99.90;;;;;;5042069;28;20472;-69
2022/03/15 05:26:05;;;;;;;73.05;31.38;;;6.90;99.90;;;;;;5046692;28;20201;-68
2022/03/15 05:28:33;;;;;;;78.63;34.47;;;6.90;99.90;;;;;;5069714;28;20200;-69
2022/03/15 05:31:02;;;;;;;79.93;33.33;;;6.90;99.90;;;;;;5061647;28;20591;-68
2022/03/15 05:33:30;;;;;;;82.90;37.40;;;6.90;99.90;;;;;;5061955;28;20324;-69
2022/03/15 05:35:58;;;;;;;79.20;36.65;;;7.00;99.90;;;;;;5061260;28;20215;-70
2022/03/15 05:38:26;;;;;;;99.47;38.47;;;6.90;99.90;;;;;;5060696;28;20707;-67
2022/03/15 05:40:55;;;;;;;113.47;39.85;;;7.00;99.90;;;;;;5064492;28;20231;-67
2022/03/15 05:43:42;;;;;;;110.50;41.35;;;7.00;99.90;;;;;;5050931;28;20448;-70
2022/03/15 05:46:12;;;;;;;120.22;42.45;;;7.00;99.90;;;;;;5040672;28;20680;-69
2022/03/15 05:48:39;;;;;;;103.70;40.67;;;7.00;99.90;;;;;;5039835;28;20298;-69
2022/03/15 05:51:07;;;;;;;114.78;42.15;;;7.00;99.90;;;;;;5039893;28;20693;-68
2022/03/15 05:53:35;;;;;;;112.03;38.97;;;7.00;99.90;;;;;;5039036;28;20233;-69
2022/03/15 05:56:03;;;;;;;101.88;39.88;;;7.00;99.90;;;;;;5039018;28;20206;-68
2022/03/15 05:58:31;;;;;;;107.90;40.25;;;7.00;99.90;;;;;;5038786;28;20708;-66
2022/03/15 06:00:58;;;;;;;104.10;40.53;;;7.10;99.90;;;;;;5039114;28;20226;-65
2022/03/15 06:03:28;;;;;;;115.25;42.05;;;7.00;99.90;;;;;;5039053;28;20204;-67
2022/03/15 06:05:56;;;;;;;107.65;41.05;;;7.00;99.90;;;;;;5039091;28;20202;-65
2022/03/15 06:08:24;;;;;;;103.97;39.88;;;7.00;99.90;;;;;;5039028;28;20212;-66
2022/03/15 06:10:51;;;;;;;118.82;43.00;;;7.00;99.90;;;;;;5038872;28;20222;-66
2022/03/15 06:13:19;;;;;;;125.90;43.22;;;7.00;99.90;;;;;;5038632;28;20226;-67
2022/03/15 06:15:47;;;;;;;106.00;41.63;;;7.00;99.90;;;;;;5038759;28;20224;-67
2022/03/15 06:18:15;;;;;;;116.68;46.40;;;7.10;99.90;;;;;;5053529;28;20522;-66
2022/03/15 06:20:44;;;;;;;105.28;41.35;;;7.10;99.90;;;;;;5058829;28;20376;-70
2022/03/15 06:23:13;;;;;;;112.07;38.65;;;7.00;99.90;;;;;;5058845;28;20210;-72
2022/03/15 06:25:40;;;;;;;93.20;40.20;;;7.00;99.90;;;;;;5058625;28;20209;-72
2022/03/15 06:28:08;;;;;;;84.07;35.55;;;7.00;99.90;;;;;;5059491;28;20209;-69
2022/03/15 06:30:36;;;;;;;93.93;37.70;;;7.00;99.90;;;;;;5058729;28;20308;-65
2022/03/15 06:33:04;;;;;;;106.45;38.13;;;7.00;99.90;;;;;;5058864;28;20225;-65
2022/03/15 06:35:33;;;;;;;84.15;35.60;;;7.00;99.90;;;;;;5059532;28;20798;-65
2022/03/15 06:38:02;;;;;;;84.43;35.90;;;7.00;99.90;;;;;;5059200;28;20844;-66
2022/03/15 06:40:33;;;;;;;101.20;41.17;;;7.00;99.90;;;;;;5059568;28;20846;-65
2022/03/15 06:43:02;;;;;;;79.68;34.45;;;7.00;99.90;;;;;;5059239;28;20211;-65
2022/03/15 06:45:30;;;;;;;93.70;36.70;;;7.10;99.90;;;;;;5058934;28;20208;-64
2022/03/15 06:47:58;;;;;;;85.20;33.70;;;7.10;99.90;;;;;;5059439;28;20706;-67
2022/03/15 06:50:26;;;;;;;80.10;36.88;;;7.20;99.90;;;;;;5058946;28;20315;-67
2022/03/15 06:52:54;;;;;;;81.00;32.10;;;7.30;99.90;;;;;;5060293;28;20589;-67
2022/03/15 06:55:23;;;;;;;77.82;33.38;;;7.40;99.90;;;;;;5061261;28;20274;-67
2022/03/15 06:57:51;;;;;;;65.25;31.48;;;7.40;99.90;;;;;;5062019;28;20197;-66
2022/03/15 07:00:19;;;;;;;69.28;31.55;;;7.50;99.90;;;;;;5062665;28;20775;-67
2022/03/15 07:02:47;;;;;;;68.00;31.75;;;7.50;99.90;;;;;;5062665;28;20201;-67
2022/03/15 07:05:15;;;;;;;68.57;31.67;;;7.50;99.90;;;;;;5062205;28;20201;-67
2022/03/15 07:07:43;;;;;;;76.18;34.20;;;7.50;99.90;;;;;;5063639;28;20201;-67
2022/03/15 07:10:17;;;;;;;74.10;33.10;;;7.50;99.90;;;;;;5060517;28;20229;-67
2022/03/15 07:12:47;;;;;;;69.47;31.30;;;7.50;99.90;;;;;;5060126;28;20575;-67
2022/03/15 07:15:17;;;;;;;68.80;32.33;;;7.50;99.90;;;;;;5060774;28;20299;-67
2022/03/15 07:17:52;;;;;;;71.70;32.20;;;7.50;99.90;;;;;;5066658;28;20200;-66
2022/03/15 07:20:20;;;;;;;67.95;31.55;;;7.40;99.90;;;;;;5079494;28;20758;-68
2022/03/15 07:22:48;;;;;;;65.38;32.60;;;7.40;99.90;;;;;;5079332;28;20318;-67
2022/03/15 07:25:16;;;;;;;60.45;31.77;;;7.40;99.90;;;;;;5079036;28;20200;-67
2022/03/15 07:27:46;;;;;;;63.38;30.25;;;7.30;99.90;;;;;;5079593;28;20208;-69
2022/03/15 07:30:14;;;;;;;62.40;32.40;;;7.20;99.90;;;;;;5078465;28;20216;-68
2022/03/15 07:32:41;;;;;;;71.75;34.42;;;7.10;99.90;;;;;;5080680;28;20312;-69
2022/03/15 07:35:37;;;;;;;78.07;33.05;;;7.10;99.90;;;;;;5080680;28;20196;-70
2022/03/15 07:38:05;;;;;;;73.93;34.65;;;7.00;99.90;;;;;;5071992;28;20220;-71
2022/03/15 07:40:33;;;;;;;73.70;35.17;;;7.10;99.90;;;;;;5079125;28;20224;-72
2022/03/15 07:43:10;;;;;;;80.45;35.42;;;7.10;99.90;;;;;;5081681;28;20200;-71
2022/03/15 07:45:42;;;;;;;78.07;34.40;;;7.10;99.90;;;;;;5078927;28;20258;-68
2022/03/15 07:48:17;;;;;;;78.05;35.50;;;7.10;99.90;;;;;;5080302;28;20625;-70
2022/03/15 07:50:46;;;;;;;73.88;35.70;;;7.20;99.90;;;;;;5078747;28;20617;-68
2022/03/15 07:53:17;;;;;;;65.00;34.28;;;7.20;99.90;;;;;;5078542;28;20602;-68
2022/03/15 07:55:45;;;;;;;68.90;33.83;;;7.20;99.90;;;;;;5097191;28;20192;-70
2022/03/15 07:58:22;;;;;;;71.78;36.47;;;7.20;99.90;;;;;;5067870;28;20478;-69
2022/03/15 08:00:54;;;;;;;75.97;34.53;;;7.20;99.90;;;;;;5045744;28;20676;-73
2022/03/15 08:03:22;;;;;;;62.67;33.95;;;7.30;99.90;;;;;;5054524;28;20193;-71
2022/03/15 08:05:50;;;;;;;56.10;31.95;;;7.30;99.90;;;;;;5061427;28;20447;-73
2022/03/15 08:08:19;;;;;;;62.50;32.47;;;7.40;99.90;;;;;;5047062;28;20280;-70
2022/03/15 08:10:47;;;;;;;53.22;29.23;;;7.40;99.90;;;;;;5043979;28;20283;-73
2022/03/15 08:13:16;;;;;;;58.60;31.08;;;7.40;99.90;;;;;;5046659;28;20369;-69
2022/03/15 08:15:48;;;;;;;58.85;31.27;;;7.40;99.90;;;;;;5042632;28;20466;-69
2022/03/15 08:18:18;;;;;;;53.10;30.98;;;7.60;99.90;;;;;;5042368;28;20281;-72
2022/03/15 08:20:48;;;;;;;69.38;33.17;;;7.60;99.90;;;;;;5042382;28;20657;-76
2022/03/15 08:23:25;;;;;;;67.97;33.70;;;7.70;99.90;;;;;;5047764;28;20390;-77
2022/03/15 08:25:58;;;;;;;66.90;34.97;;;7.70;99.90;;;;;;5047471;28;20198;-75
2022/03/15 08:28:29;;;;;;;70.00;35.25;;;7.70;99.90;;;;;;5049294;28;20198;-75
2022/03/15 08:31:05;;;;;;;60.35;33.92;;;7.70;99.90;;;;;;5051069;28;20221;-78
2022/03/15 08:33:40;;;;;;;71.90;35.28;;;7.90;99.90;;;;;;5062527;28;20716;-77
2022/03/15 08:36:07;;;;;;;69.70;36.97;;;7.90;99.90;;;;;;5070607;28;20760;-79
2022/03/15 08:38:42;;;;;;;74.07;37.30;;;8.00;99.90;;;;;;5068973;28;20277;-80
2022/03/15 08:41:11;;;;;;;68.13;36.25;;;8.10;99.90;;;;;;5071316;28;20230;-77
2022/03/15 08:43:39;;;;;;;74.65;36.63;;;8.10;99.90;;;;;;5068943;28;20201;-81
2022/03/15 08:46:08;;;;;;;75.65;37.22;;;8.20;99.90;;;;;;5073119;28;20192;-81
2022/03/15 08:48:36;;;;;;;75.05;35.63;;;8.20;99.90;;;;;;5071649;28;20209;-76
2022/03/15 08:51:04;;;;;;;72.72;37.55;;;8.20;99.90;;;;;;5074146;28;20419;-75
2022/03/15 08:53:33;;;;;;;68.63;36.65;;;8.20;99.90;;;;;;5087529;28;20212;-78
2022/03/15 08:56:01;;;;;;;69.65;36.90;;;8.20;99.90;;;;;;5102639;28;20686;-79
2022/03/15 08:58:29;;;;;;;79.47;39.88;;;8.30;99.90;;;;;;5105635;28;20201;-82
2022/03/15 09:00:58;;;;;;;75.28;38.47;;;8.30;99.90;;;;;;5105463;28;20322;-79
2022/03/15 09:03:39;;;;;;;82.72;37.53;;;8.40;99.90;;;;;;5101811;28;20192;-78
2022/03/15 09:06:07;;;;;;;76.07;38.03;;;8.50;99.90;;;;;;5087393;28;20261;-83
2022/03/15 09:08:35;;;;;;;85.88;37.30;;;8.60;99.90;;;;;;5069477;28;20215;-77
2022/03/15 09:11:04;;;;;;;63.28;34.55;;;8.60;99.90;;;;;;5065382;28;20227;-76
2022/03/15 09:13:32;;;;;;;60.85;35.97;;;8.60;99.90;;;;;;5064893;28;20201;-78
2022/03/15 09:16:00;;;;;;;67.07;34.60;;;8.70;99.90;;;;;;5065167;28;20296;-78
2022/03/15 09:18:28;;;;;;;69.32;38.22;;;8.80;99.90;;;;;;5065256;28;20283;-77
2022/03/15 09:20:57;;;;;;;69.63;36.85;;;8.90;99.90;;;;;;5064676;28;20712;-73
2022/03/15 09:23:24;;;;;;;62.03;36.33;;;9.00;99.90;;;;;;5072174;28;20268;-77
2022/03/15 09:25:52;;;;;;;67.47;36.40;;;9.00;99.90;;;;;;5074114;28;20205;-76
2022/03/15 09:28:27;;;;;;;65.00;36.10;;;9.10;99.90;;;;;;5066301;28;20232;-75
2022/03/15 09:30:55;;;;;;;73.13;38.38;;;9.10;99.90;;;;;;5066401;28;20316;-77
2022/03/15 09:33:24;;;;;;;76.60;37.50;;;9.20;99.90;;;;;;5071280;28;20227;-80
2022/03/15 09:35:52;;;;;;;62.42;34.65;;;9.20;99.90;;;;;;5070536;28;20308;-78
2022/03/15 09:38:21;;;;;;;57.13;33.85;;;9.40;99.90;;;;;;5073220;28;20200;-80
2022/03/15 09:40:54;;;;;;;54.78;32.58;;;9.40;99.90;;;;;;5063208;28;20213;-75
2022/03/15 09:43:24;;;;;;;53.40;32.25;;;9.50;99.90;;;;;;5063516;28;20192;-76
2022/03/15 09:45:53;;;;;;;52.50;30.90;;;9.60;99.90;;;;;;5070611;28;20262;-81
2022/03/15 09:48:42;;;;;;;45.50;29.85;;;9.70;99.90;;;;;;5062529;28;20213;-76
2022/03/15 09:51:14;;;;;;;46.65;31.17;;;9.70;99.90;;;;;;5063766;28;20250;-78
2022/03/15 09:53:44;;;;;;;49.10;31.02;;;9.80;99.90;;;;;;5074726;28;20211;-77
2022/03/15 09:56:15;;;;;;;52.10;30.17;;;9.90;99.90;;;;;;5084350;28;20433;-77
2022/03/15 09:58:43;;;;;;;42.45;30.55;;;9.90;99.90;;;;;;5082150;28;20215;-74
2022/03/15 10:01:16;;;;;;;47.83;29.42;;;10.00;99.90;;;;;;5081365;28;20223;-74
2022/03/15 10:03:45;;;;;;;42.13;30.02;;;10.00;99.90;;;;;;5083219;28;20200;-76
2022/03/15 10:06:13;;;;;;;44.13;28.45;;;10.10;99.90;;;;;;5085394;28;20192;-74
2022/03/15 10:08:43;;;;;;;40.22;27.80;;;10.10;99.90;;;;;;5085965;28;20853;-75
2022/03/15 10:11:12;;;;;;;40.40;26.58;;;10.10;99.90;;;;;;5089299;28;20284;-79
2022/03/15 10:13:41;;;;;;;41.75;26.75;;;10.20;99.90;;;;;;5083287;28;20204;-78
2022/03/15 10:16:14;;;;;;;36.55;26.25;;;10.30;99.90;;;;;;5086468;28;20486;-75
2022/03/15 10:18:53;;;;;;;53.58;29.30;;;10.50;99.90;;;;;;5085096;28;20620;-77
2022/03/15 10:21:24;;;;;;;40.28;25.40;;;10.50;99.90;;;;;;5081103;28;20224;-75
2022/03/15 10:23:54;;;;;;;36.38;25.42;;;10.70;99.90;;;;;;5059780;28;20223;-76
2022/03/15 10:26:24;;;;;;;34.33;24.63;;;10.80;99.90;;;;;;5073860;28;20656;-83
2022/03/15 10:28:54;;;;;;;33.75;23.58;;;10.80;99.90;;;;;;5076711;28;20479;-83
2022/03/15 10:31:27;;;;;;;33.50;22.17;;;10.90;99.90;;;;;;5077737;28;20521;-80
2022/03/15 10:34:00;;;;;;;35.57;23.07;;;11.00;99.90;;;;;;5073418;28;20443;-79
2022/03/15 10:36:44;;;;;;;33.00;19.80;;;11.10;99.90;;;;;;5073937;28;20440;-77
2022/03/15 10:39:16;;;;;;;28.33;20.87;;;11.20;99.90;;;;;;5072181;28;20514;-82
2022/03/15 10:44:45;;;;;;;23.73;17.00;;;11.30;99.90;;;;;;5074251;28;20370;-82
2022/03/15 10:47:15;;;;;;;27.40;18.70;;;11.30;99.90;;;;;;5072162;28;21175;-78
2022/03/15 10:49:49;;;;;;;25.20;17.03;;;11.40;99.90;;;;;;5068130;28;21030;-80
2022/03/15 10:52:32;;;;;;;21.03;17.03;;;11.40;99.90;;;;;;5068174;28;20467;-76
2022/03/15 10:55:15;;;;;;;23.83;16.67;;;11.60;99.90;;;;;;5068187;28;20561;-78
2022/03/15 10:57:52;;;;;;;23.70;15.73;;;11.70;99.90;;;;;;5066262;28;20489;-77
2022/03/15 11:00:23;;;;;;;23.47;16.10;;;11.70;99.90;;;;;;5065491;28;20459;-76
2022/03/15 11:02:52;;;;;;;20.87;15.00;;;11.80;99.90;;;;;;5065560;28;20834;-76
2022/03/15 11:05:29;;;;;;;21.17;16.00;;;11.80;99.90;;;;;;5064690;28;20935;-86
2022/03/15 11:08:03;;;;;;;23.10;16.27;;;11.90;99.90;;;;;;5075478;28;20979;-80
2022/03/15 11:10:34;;;;;;;18.83;14.63;;;11.90;99.90;;;;;;5072664;28;20452;-81
2022/03/15 11:13:07;;;;;;;22.07;14.30;;;11.90;99.90;;;;;;5068059;28;20836;-77
2022/03/15 11:15:39;;;;;;;21.13;14.20;;;12.00;99.90;;;;;;5067308;28;20799;-75
2022/03/15 11:18:09;;;;;;;21.17;14.00;;;12.10;99.90;;;;;;5068396;28;20449;-80
2022/03/15 11:20:39;;;;;;;28.03;14.40;;;12.20;99.90;;;;;;5074533;28;21059;-78
2022/03/15 11:23:09;;;;;;;17.10;13.60;;;12.30;99.90;;;;;;5068845;28;20793;-88
2022/03/15 11:25:40;;;;;;;23.47;14.50;;;12.30;99.90;;;;;;5071752;28;20439;-79
2022/03/15 11:28:12;;;;;;;19.50;14.20;;;12.30;99.90;;;;;;5067500;28;20466;-71
2022/03/15 11:30:40;;;;;;;22.97;14.07;;;12.40;99.90;;;;;;5057943;28;20813;-71
2022/03/15 11:33:10;;;;;;;20.50;12.70;;;12.40;99.90;;;;;;5061200;28;20439;-74
2022/03/15 11:35:40;;;;;;;21.83;13.10;;;12.50;99.90;;;;;;5059534;28;21016;-77
2022/03/15 11:38:12;;;;;;;17.23;12.70;;;12.60;99.90;;;;;;5061359;28;20474;-78
2022/03/15 11:40:42;;;;;;;22.67;13.23;;;12.70;99.90;;;;;;5061301;28;20455;-76
2022/03/15 11:43:22;;;;;;;18.97;12.83;;;12.70;99.90;;;;;;5059473;28;20448;-75
2022/03/15 11:45:58;;;;;;;15.73;12.73;;;12.80;99.90;;;;;;5061587;28;20859;-76
2022/03/15 11:48:41;;;;;;;18.37;11.17;;;12.80;99.90;;;;;;5064256;28;20443;-78
2022/03/15 11:51:25;;;;;;;19.20;11.80;;;12.80;99.90;;;;;;5048733;28;21104;-77
2022/03/15 11:54:01;;;;;;;23.03;12.03;;;12.80;99.90;;;;;;5062925;28;21021;-77
2022/03/15 11:56:39;;;;;;;20.30;13.30;;;12.90;99.90;;;;;;5058764;28;20474;-77
2022/03/15 11:59:07;;;;;;;18.10;11.60;;;12.90;99.90;;;;;;5065184;28;20498;-77
2022/03/15 12:01:44;;;;;;;21.03;11.70;;;12.90;99.90;;;;;;5064702;28;20555;-82
2022/03/15 12:04:12;;;;;;;15.87;11.50;;;12.90;99.90;;;;;;5079026;28;20450;-82
2022/03/15 12:06:54;;;;;;;18.87;12.13;;;13.00;99.90;;;;;;5076597;28;20547;-80
2022/03/15 12:09:25;;;;;;;18.73;11.60;;;13.00;99.90;;;;;;5069906;28;20647;-75
2022/03/15 12:12:06;;;;;;;18.40;10.10;;;12.90;99.90;;;;;;5064751;28;20474;-76
2022/03/15 12:14:39;;;;;;;12.23;9.77;;;12.90;99.90;;;;;;5044637;28;20487;-77
2022/03/15 12:17:08;;;;;;;23.13;11.20;;;13.00;99.90;;;;;;5049684;28;20552;-79
2022/03/15 12:19:47;;;;;;;19.37;12.77;;;13.00;99.90;;;;;;5049892;28;20460;-77
2022/03/15 12:22:23;;;;;;;25.90;13.47;;;13.10;99.90;;;;;;5038172;28;20535;-70
2022/03/15 12:25:14;;;;;;;21.80;11.83;;;13.10;99.90;;;;;;5036985;28;20463;-72
2022/03/15 12:28:04;;;;;;;17.90;12.47;;;13.10;99.90;;;;;;5036803;28;20440;-72
2022/03/15 12:30:38;;;;;;;19.80;12.10;;;13.10;99.90;;;;;;5039310;28;20674;-82
2022/03/15 12:33:06;;;;;;;15.73;11.30;;;13.20;99.90;;;;;;5057648;28;20544;-82
2022/03/15 12:35:37;;;;;;;17.43;11.97;;;13.20;99.90;;;;;;5052511;28;20916;-81
2022/03/15 12:38:06;;;;;;;18.70;12.00;;;13.30;99.90;;;;;;5060411;28;20535;-84
2022/03/15 12:40:34;;;;;;;17.53;10.77;;;13.30;99.90;;;;;;5055329;28;20570;-82
2022/03/15 12:43:05;;;;;;;18.93;11.80;;;13.30;99.90;;;;;;5058924;28;20924;-78
2022/03/15 12:45:33;;;;;;;27.80;12.47;;;13.30;99.90;;;;;;5033932;28;20804;-77
2022/03/15 12:48:06;;;;;;;17.50;11.27;;;13.40;99.90;;;;;;5050030;28;20781;-83
2022/03/15 12:50:56;;;;;;;17.10;11.80;;;13.40;99.90;;;;;;5049374;28;20595;-79